Time;durP1;ratioP1;P1;durP2;ratioP2;P2;SDS_P1;SDS_P2;PMS_P1;PMS_P2;Temp;Humidity;BMP_temperature;BMP_pressure;BME280_temperature;BME280_humidity;BME280_pressure;Samples;Min_cycle;Max_cycle;Signal;HPM_P1;HPM_P2
2022/12/09 00:00:27;;;;;;;;;;;-1.80;99.90;;;;;;5052944;28;20031;-77
2022/12/09 00:02:53;;;;;;;;;;;-1.80;99.90;;;;;;5052918;28;19921;-77
2022/12/09 00:05:18;;;;;;;;;;;-1.90;99.90;;;;;;5053541;28;19928;-76
2022/12/09 00:07:44;;;;;;;;;;;-2.00;99.90;;;;;;5045498;28;19927;-76
2022/12/09 00:10:09;;;;;;;;;;;-2.10;99.90;;;;;;5064136;28;19922;-76
2022/12/09 00:12:35;;;;;;;;;;;-2.10;99.90;;;;;;5051513;28;19920;-77
2022/12/09 00:15:00;;;;;;;;;;;-2.10;99.90;;;;;;5053048;28;20251;-76
2022/12/09 00:17:26;;;;;;;;;;;-2.20;99.90;;;;;;5037522;28;19921;-77
2022/12/09 00:19:51;;;;;;;;;;;-2.30;99.90;;;;;;5053098;28;19921;-76
2022/12/09 00:22:17;;;;;;;;;;;-2.30;99.90;;;;;;5057284;28;19928;-76
2022/12/09 00:24:42;;;;;;;;;;;-2.30;99.90;;;;;;5051861;28;19921;-76
2022/12/09 00:27:08;;;;;;;;;;;-2.50;99.90;;;;;;5036556;28;20129;-77
2022/12/09 00:29:33;;;;;;;;;;;-2.50;99.90;;;;;;5053116;28;19920;-76
2022/12/09 00:31:59;;;;;;;;;;;-2.50;99.90;;;;;;5052932;28;20012;-76
2022/12/09 00:34:25;;;;;;;;;;;-2.60;99.90;;;;;;5034844;28;19921;-76
2022/12/09 00:36:50;;;;;;;;;;;-2.50;99.90;;;;;;5038567;28;19933;-76
2022/12/09 00:39:16;;;;;;;;;;;-2.50;99.90;;;;;;5050649;28;19927;-75
2022/12/09 00:41:41;;;;;;;;;;;-2.60;99.90;;;;;;5046407;28;19921;-77
2022/12/09 00:44:07;;;;;;;;;;;-2.70;99.90;;;;;;5046100;28;19925;-76
2022/12/09 00:46:32;;;;;;;;;;;-2.80;99.90;;;;;;5038990;28;19920;-76
2022/12/09 00:48:58;;;;;;;;;;;-2.80;99.90;;;;;;5046375;28;19920;-76
2022/12/09 00:51:24;;;;;;;;;;;-2.80;99.90;;;;;;5048585;28;20007;-76
2022/12/09 00:53:53;;;;;;;;;;;-2.90;99.90;;;;;;5045563;28;20034;-76
2022/12/09 00:56:22;;;;;;;;;;;-2.90;99.90;;;;;;5042052;28;19974;-76
2022/12/09 00:58:47;;;;;;;;;;;-3.00;99.90;;;;;;5039452;28;19925;-77
2022/12/09 01:01:13;;;;;;;;;;;-3.00;99.90;;;;;;5050886;28;19975;-77
2022/12/09 01:03:38;;;;;;;;;;;-3.00;99.90;;;;;;5051867;28;19920;-76
2022/12/09 01:06:11;;;;;;;;;;;-3.00;99.90;;;;;;5050948;28;20047;-76
2022/12/09 01:08:37;;;;;;;;;;;-3.00;99.90;;;;;;5041243;28;20039;-77
2022/12/09 01:11:19;;;;;;;;;;;-3.00;99.90;;;;;;5050720;28;19975;-76
2022/12/09 01:13:45;;;;;;;;;;;-3.00;99.90;;;;;;5051522;28;20385;-76
2022/12/09 01:16:14;;;;;;;;;;;-3.00;99.90;;;;;;5044170;28;20011;-77
2022/12/09 01:18:40;;;;;;;;;;;-3.10;99.90;;;;;;5045310;28;19920;-76
2022/12/09 01:21:06;;;;;;;;;;;-3.00;99.90;;;;;;5048919;28;20004;-75
2022/12/09 01:23:31;;;;;;;;;;;-3.10;99.90;;;;;;5053056;28;19920;-76
2022/12/09 01:25:57;;;;;;;;;;;-3.20;99.90;;;;;;5054569;28;19932;-78
2022/12/09 01:28:22;;;;;;;;;;;-3.20;99.90;;;;;;5035423;28;19921;-75
2022/12/09 01:30:48;;;;;;;;;;;-3.20;99.90;;;;;;5051535;28;19928;-76
2022/12/09 01:33:13;;;;;;;;;;;-3.30;99.90;;;;;;5051169;28;19921;-75
2022/12/09 01:35:40;;;;;;;;;;;-3.30;99.90;;;;;;5034099;28;20230;-75
2022/12/09 01:38:05;;;;;;;;;;;-3.20;99.90;;;;;;5035762;28;19928;-75
2022/12/09 01:40:31;;;;;;;;;;;-3.20;99.90;;;;;;5048356;28;19924;-76
2022/12/09 01:42:56;;;;;;;;;;;-3.10;99.90;;;;;;5033381;28;20271;-76
2022/12/09 01:45:23;;;;;;;;;;;-3.00;99.90;;;;;;5034509;28;19921;-77
2022/12/09 01:47:59;;;;;;;;;;;-3.00;99.90;;;;;;5035158;28;19920;-75
2022/12/09 01:50:25;;;;;;;;;;;-2.90;99.90;;;;;;5046518;28;20278;-76
2022/12/09 01:52:51;;;;;;;;;;;-3.00;99.90;;;;;;5046441;28;19925;-76
2022/12/09 01:55:17;;;;;;;;;;;-3.00;99.90;;;;;;5050830;28;19940;-75
2022/12/09 01:57:43;;;;;;;;;;;-3.00;99.90;;;;;;5035480;28;19925;-75
2022/12/09 02:00:09;;;;;;;;;;;-3.10;99.90;;;;;;5051576;28;20376;-77
2022/12/09 02:02:36;;;;;;;;;;;-3.10;99.90;;;;;;5031526;28;19921;-75
2022/12/09 02:05:03;;;;;;;;;;;-3.10;99.90;;;;;;5048655;28;20355;-75
2022/12/09 02:07:28;;;;;;;;;;;-3.10;99.90;;;;;;5034207;28;19952;-76
2022/12/09 02:09:54;;;;;;;;;;;-3.00;99.90;;;;;;5051513;28;19952;-77
2022/12/09 02:12:24;;;;;;;;;;;-2.90;99.90;;;;;;5050511;28;19921;-75
2022/12/09 02:14:57;;;;;;;;;;;-2.90;99.90;;;;;;5034091;28;19921;-78
2022/12/09 02:17:45;;;;;;;;;;;-2.90;99.90;;;;;;5030853;28;19998;-77
2022/12/09 02:20:14;;;;;;;;;;;-2.80;99.90;;;;;;5051046;28;20019;-76
2022/12/09 02:22:57;;;;;;;;;;;-2.90;99.90;;;;;;5047965;28;19927;-76
2022/12/09 02:25:35;;;;;;;;;;;-2.90;99.90;;;;;;5033414;28;19928;-76
2022/12/09 02:28:11;;;;;;;;;;;-2.70;99.90;;;;;;5025758;28;19921;-77
2022/12/09 02:30:41;;;;;;;;;;;-2.60;99.90;;;;;;5050836;28;19963;-76
2022/12/09 02:33:09;;;;;;;;;;;-2.60;99.90;;;;;;5050210;28;19921;-77
2022/12/09 02:35:41;;;;;;;;;;;-2.70;99.90;;;;;;5047773;28;20433;-76
2022/12/09 02:38:12;;;;;;;;;;;-2.70;99.90;;;;;;5014972;28;19928;-76
2022/12/09 02:40:49;;;;;;;;;;;-2.60;99.90;;;;;;5064907;28;19925;-77
2022/12/09 02:43:16;;;;;;;;;;;-2.60;99.90;;;;;;5049792;28;20413;-75
2022/12/09 02:45:42;;;;;;;;;;;-2.70;99.90;;;;;;5050121;28;19978;-75
2022/12/09 02:48:08;;;;;;;;;;;-2.50;99.90;;;;;;5030912;28;19977;-76
2022/12/09 02:50:36;;;;;;;;;;;-2.50;99.90;;;;;;5049893;28;19920;-75
2022/12/09 02:53:04;;;;;;;;;;;-2.50;99.90;;;;;;5037671;28;20012;-76
2022/12/09 02:55:31;;;;;;;;;;;-2.50;99.90;;;;;;5042164;28;19927;-76
2022/12/09 02:57:58;;;;;;;;;;;-2.50;99.90;;;;;;5033729;28;20340;-76
2022/12/09 03:00:24;;;;;;;;;;;-2.40;99.90;;;;;;5032669;28;19921;-75
2022/12/09 03:02:52;;;;;;;;;;;-2.30;99.90;;;;;;5031031;28;19927;-77
2022/12/09 03:05:17;;;;;;;;;;;-1.30;99.90;;;;;;5050235;28;20204;-76
2022/12/09 03:07:58;;;;;;;;;;;-2.40;99.90;;;;;;5024181;28;19925;-76
2022/12/09 03:10:31;;;;;;;;;;;-2.30;99.90;;;;;;5050162;28;19921;-75
2022/12/09 03:13:00;;;;;;;;;;;-2.30;99.90;;;;;;5049417;28;19924;-76
2022/12/09 03:15:28;;;;;;;;;;;-2.40;99.90;;;;;;5050335;28;20370;-75
2022/12/09 03:17:55;;;;;;;;;;;-2.30;99.90;;;;;;5029619;28;19928;-76
2022/12/09 03:20:23;;;;;;;;;;;-1.70;99.90;;;;;;5048412;28;20248;-77
2022/12/09 03:22:50;;;;;;;;;;;-2.30;99.90;;;;;;5037478;28;20429;-78
2022/12/09 03:25:20;;;;;;;;;;;-2.40;99.90;;;;;;5064025;28;19921;-76
2022/12/09 03:28:05;;;;;;;;;;;-2.40;99.90;;;;;;5006376;28;19967;-75
2022/12/09 03:30:33;;;;;;;;;;;-2.30;99.90;;;;;;5011832;28;19928;-75
2022/12/09 03:32:59;;;;;;;;;;;-2.30;99.90;;;;;;5044863;28;19921;-75
2022/12/09 03:35:28;;;;;;;;;;;-2.20;99.90;;;;;;5050241;28;19932;-76
2022/12/09 03:37:54;;;;;;;;;;;-2.20;99.90;;;;;;5044172;28;19935;-76
2022/12/09 03:40:22;;;;;;;;;;;-2.10;99.90;;;;;;5061485;28;19928;-77
2022/12/09 03:42:52;;;;;;;;;;;-2.10;99.90;;;;;;5031239;28;20006;-75
2022/12/09 03:45:18;;;;;;;;;;;-2.00;99.90;;;;;;5050226;28;19929;-75
2022/12/09 03:47:44;;;;;;;;;;;-1.90;99.90;;;;;;5033193;28;19925;-75
2022/12/09 03:50:10;;;;;;;;;;;-2.00;99.90;;;;;;5049340;28;19951;-75
2022/12/09 03:52:41;;;;;;;;;;;-2.00;99.90;;;;;;5034603;28;19921;-76
2022/12/09 03:55:25;;;;;;;;;;;-2.00;99.90;;;;;;5049957;28;19948;-76
2022/12/09 03:57:53;;;;;;;;;;;-2.00;99.90;;;;;;5033279;28;20394;-75
2022/12/09 04:00:18;;;;;;;;;;;-2.00;99.90;;;;;;5048714;28;19925;-76
2022/12/09 04:02:44;;;;;;;;;;;-2.00;99.90;;;;;;5038864;28;19944;-76
2022/12/09 04:05:10;;;;;;;;;;;-2.10;99.90;;;;;;5039457;28;19975;-76
2022/12/09 04:07:36;;;;;;;;;;;-2.10;99.90;;;;;;5033548;28;19926;-75
2022/12/09 04:10:01;;;;;;;;;;;-2.20;99.90;;;;;;5049504;28;19920;-76
2022/12/09 04:12:27;;;;;;;;;;;-2.30;99.90;;;;;;5046866;28;19928;-75
2022/12/09 04:14:53;;;;;;;;;;;-2.30;99.90;;;;;;5029822;28;20325;-76
2022/12/09 04:17:18;;;;;;;;;;;-2.00;99.90;;;;;;5024349;28;20256;-76
2022/12/09 04:19:44;;;;;;;;;;;-2.40;99.90;;;;;;5033038;28;19943;-76
2022/12/09 04:22:09;;;;;;;;;;;-2.40;99.90;;;;;;5050377;28;19925;-76
2022/12/09 04:24:35;;;;;;;;;;;-2.50;99.90;;;;;;5046811;28;19921;-76
2022/12/09 04:27:00;;;;;;;;;;;-2.40;99.90;;;;;;5037225;28;19967;-76
2022/12/09 04:29:26;;;;;;;;;;;-2.50;99.90;;;;;;5052206;28;19921;-76
2022/12/09 04:31:51;;;;;;;;;;;-2.50;99.90;;;;;;5053281;28;20019;-76
2022/12/09 04:34:17;;;;;;;;;;;-2.50;99.90;;;;;;5049360;28;19943;-76
2022/12/09 04:36:43;;;;;;;;;;;-2.60;99.90;;;;;;5019479;28;19921;-80
2022/12/09 04:39:08;;;;;;;;;;;-1.70;99.90;;;;;;5050741;28;19956;-76
2022/12/09 04:41:34;;;;;;;;;;;-2.60;99.90;;;;;;5052831;28;19920;-75
2022/12/09 04:43:59;;;;;;;;;;;-2.50;99.90;;;;;;5032690;28;19948;-76
2022/12/09 04:46:25;;;;;;;;;;;-2.60;99.90;;;;;;5036249;28;20307;-76
2022/12/09 04:48:51;;;;;;;;;;;-2.60;99.90;;;;;;5048875;28;20274;-76
2022/12/09 04:51:16;;;;;;;;;;;-2.50;99.90;;;;;;5045658;28;19967;-75
2022/12/09 04:53:42;;;;;;;;;;;-2.40;99.90;;;;;;5048452;28;19920;-76
2022/12/09 04:56:10;;;;;;;;;;;-2.40;99.90;;;;;;5047861;28;20294;-76
2022/12/09 04:58:36;;;;;;;;;;;-2.30;99.90;;;;;;5043609;28;20424;-75
2022/12/09 05:01:08;;;;;;;;;;;-2.30;99.90;;;;;;5052809;28;19925;-75
2022/12/09 05:03:34;;;;;;;;;;;-2.20;99.90;;;;;;5051415;28;20430;-74
2022/12/09 05:06:02;;;;;;;;;;;-2.20;99.90;;;;;;5052169;28;19921;-75
2022/12/09 05:08:27;;;;;;;;;;;-2.20;99.90;;;;;;5033118;28;19925;-76
2022/12/09 05:10:53;;;;;;;;;;;-2.10;99.90;;;;;;5049900;28;20435;-76
2022/12/09 05:13:18;;;;;;;;;;;-2.20;99.90;;;;;;5048179;28;20161;-76
2022/12/09 05:15:44;;;;;;;;;;;-2.20;99.90;;;;;;5053112;28;20610;-76
2022/12/09 05:18:10;;;;;;;;;;;-2.20;99.90;;;;;;5036545;28;20420;-75
2022/12/09 05:20:37;;;;;;;;;;;-2.20;99.90;;;;;;5050108;28;20486;-75
2022/12/09 05:23:03;;;;;;;;;;;-2.10;99.90;;;;;;5050293;28;20286;-75
2022/12/09 05:25:28;;;;;;;;;;;-2.10;99.90;;;;;;5058640;28;19920;-76
2022/12/09 05:27:54;;;;;;;;;;;-1.60;99.90;;;;;;5035611;28;19931;-76
2022/12/09 05:30:19;;;;;;;;;;;-2.00;99.90;;;;;;5051287;28;20386;-76
2022/12/09 05:32:45;;;;;;;;;;;-2.00;99.90;;;;;;5051273;28;19928;-77
2022/12/09 05:35:10;;;;;;;;;;;-2.10;99.90;;;;;;5051803;28;19928;-76
2022/12/09 05:37:36;;;;;;;;;;;-2.10;99.90;;;;;;5035566;28;19928;-75
2022/12/09 05:40:02;;;;;;;;;;;-2.00;99.90;;;;;;5039282;28;19961;-76
2022/12/09 05:42:28;;;;;;;;;;;-2.00;99.90;;;;;;5030311;28;19925;-75
2022/12/09 05:44:54;;;;;;;;;;;-2.10;99.90;;;;;;5031134;28;19921;-79
2022/12/09 05:47:20;;;;;;;;;;;-2.10;99.90;;;;;;5015982;28;19967;-78
2022/12/09 05:49:46;;;;;;;;;;;-2.10;99.90;;;;;;5031118;28;19925;-76
2022/12/09 05:52:13;;;;;;;;;;;-2.10;99.90;;;;;;5030755;28;19921;-76
2022/12/09 05:54:39;;;;;;;;;;;-2.10;99.90;;;;;;5031573;28;19928;-76
2022/12/09 05:57:04;;;;;;;;;;;-2.10;99.90;;;;;;5015065;28;19921;-75
2022/12/09 05:59:30;;;;;;;;;;;-2.10;99.90;;;;;;5031458;28;20335;-76
2022/12/09 06:01:55;;;;;;;;;;;-2.20;99.90;;;;;;5029565;28;19968;-76
2022/12/09 06:04:21;;;;;;;;;;;-2.10;99.90;;;;;;5029550;28;19928;-76
2022/12/09 06:06:46;;;;;;;;;;;-2.20;99.90;;;;;;5015878;28;19975;-77
2022/12/09 06:09:12;;;;;;;;;;;-2.30;99.90;;;;;;5029738;28;20012;-77
2022/12/09 06:11:38;;;;;;;;;;;-2.30;99.90;;;;;;5030575;28;19933;-75
2022/12/09 06:14:04;;;;;;;;;;;-2.30;99.90;;;;;;5030448;28;20007;-76
2022/12/09 06:16:29;;;;;;;;;;;-2.20;99.90;;;;;;5019186;28;20483;-75
2022/12/09 06:18:55;;;;;;;;;;;-2.10;99.90;;;;;;5027259;28;19922;-76
2022/12/09 06:21:21;;;;;;;;;;;-2.00;99.90;;;;;;5031417;28;20218;-76
2022/12/09 06:23:47;;;;;;;;;;;-1.90;99.90;;;;;;5024602;28;19933;-76
2022/12/09 06:26:31;;;;;;;;;;;-1.90;99.90;;;;;;5022940;28;19971;-76
2022/12/09 06:28:56;;;;;;;;;;;-1.30;99.90;;;;;;5048630;28;19920;-75
2022/12/09 06:31:22;;;;;;;;;;;-1.90;99.90;;;;;;5051181;28;19977;-76
2022/12/09 06:33:48;;;;;;;;;;;-1.90;99.90;;;;;;5029500;28;19984;-75
2022/12/09 06:36:14;;;;;;;;;;;-1.90;99.90;;;;;;5013372;28;19991;-76
2022/12/09 06:38:39;;;;;;;;;;;-2.00;99.90;;;;;;5022468;28;20272;-76
2022/12/09 06:41:06;;;;;;;;;;;-2.10;99.90;;;;;;5038357;28;19934;-76
2022/12/09 06:43:32;;;;;;;;;;;-2.10;99.90;;;;;;5025881;28;20280;-75
2022/12/09 06:45:57;;;;;;;;;;;-2.10;99.90;;;;;;5011423;28;19925;-76
2022/12/09 06:48:23;;;;;;;;;;;-2.20;99.90;;;;;;4994360;28;20272;-76
2022/12/09 06:50:49;;;;;;;;;;;-2.30;99.90;;;;;;5010695;28;20004;-75
2022/12/09 06:53:17;;;;;;;;;;;-2.30;99.90;;;;;;5032808;28;19920;-76
2022/12/09 06:55:43;;;;;;;;;;;-2.40;99.90;;;;;;5029015;28;19921;-76
2022/12/09 06:58:08;;;;;;;;;;;-2.40;99.90;;;;;;5011695;28;19992;-77
2022/12/09 07:00:34;;;;;;;;;;;-2.30;99.90;;;;;;5029878;28;19925;-78
2022/12/09 07:02:59;;;;;;;;;;;-2.30;99.90;;;;;;5012110;28;20314;-77
2022/12/09 07:05:25;;;;;;;;;;;-2.30;99.90;;;;;;5027176;28;19938;-78
2022/12/09 07:07:51;;;;;;;;;;;-2.30;99.90;;;;;;5011297;28;19921;-74
2022/12/09 07:10:17;;;;;;;;;;;-2.40;99.90;;;;;;5021755;28;20308;-75
2022/12/09 07:12:42;;;;;;;;;;;-2.30;99.90;;;;;;5029684;28;20364;-75
2022/12/09 07:15:08;;;;;;;;;;;-2.30;99.90;;;;;;5028247;28;19947;-77
2022/12/09 07:17:34;;;;;;;;;;;-2.20;99.90;;;;;;4999555;28;19960;-78
2022/12/09 07:19:59;;;;;;;;;;;-2.40;99.90;;;;;;5025998;28;19927;-77
2022/12/09 07:22:25;;;;;;;;;;;-2.30;99.90;;;;;;5032321;28;19921;-77
2022/12/09 07:24:51;;;;;;;;;;;-1.40;99.90;;;;;;5038473;28;19933;-78
2022/12/09 07:27:16;;;;;;;;;;;-2.30;99.90;;;;;;5000377;28;19928;-77
2022/12/09 07:29:42;;;;;;;;;;;-2.40;99.90;;;;;;5024181;28;19979;-77
2022/12/09 07:32:11;;;;;;;;;;;-2.40;99.90;;;;;;5035780;28;20016;-77
2022/12/09 07:34:37;;;;;;;;;;;-2.40;99.90;;;;;;5015414;28;19976;-77
2022/12/09 07:37:02;;;;;;;;;;;-2.50;99.90;;;;;;5028940;28;19924;-77
2022/12/09 07:39:28;;;;;;;;;;;-2.40;99.90;;;;;;5014774;28;20012;-78
2022/12/09 07:41:57;;;;;;;;;;;-2.40;99.90;;;;;;5025497;28;19921;-77
2022/12/09 07:44:23;;;;;;;;;;;-2.30;99.90;;;;;;5000010;28;19921;-78
2022/12/09 07:46:49;;;;;;;;;;;-2.10;99.90;;;;;;5009186;28;19925;-77
2022/12/09 07:49:15;;;;;;;;;;;-2.10;99.90;;;;;;5000652;28;20442;-77
2022/12/09 07:51:41;;;;;;;;;;;-2.00;99.90;;;;;;5009045;28;19929;-75
2022/12/09 07:54:11;;;;;;;;;;;-1.90;99.90;;;;;;4992006;28;20037;-74
2022/12/09 07:56:37;;;;;;;;;;;-2.00;99.90;;;;;;4977408;28;19940;-75
2022/12/09 07:59:05;;;;;;;;;;;-1.90;99.90;;;;;;5018356;28;20270;-75
2022/12/09 08:01:30;;;;;;;;;;;-1.90;99.90;;;;;;5026871;28;20414;-77
2022/12/09 08:03:56;;;;;;;;;;;-1.90;99.90;;;;;;5013984;28;19921;-76
2022/12/09 08:06:22;;;;;;;;;;;-1.80;99.90;;;;;;5017821;28;20310;-75
2022/12/09 08:08:48;;;;;;;;;;;-1.40;99.90;;;;;;5022627;28;20264;-75
2022/12/09 08:11:15;;;;;;;;;;;-1.80;99.90;;;;;;5027402;28;19921;-75
2022/12/09 08:13:41;;;;;;;;;;;-1.70;99.90;;;;;;5026017;28;20302;-77
2022/12/09 08:16:07;;;;;;;;;;;-1.60;99.90;;;;;;5012916;28;19929;-80
2022/12/09 08:18:33;;;;;;;;;;;-1.60;99.90;;;;;;5000688;28;19921;-77
2022/12/09 08:21:02;;;;;;;;;;;-1.50;99.90;;;;;;5010596;28;20246;-79
2022/12/09 08:23:28;;;;;;;;;;;-1.40;99.90;;;;;;4993013;28;20047;-79
2022/12/09 08:25:54;;;;;;;;;;;-1.20;99.90;;;;;;5013068;28;19925;-77
2022/12/09 08:28:20;;;;;;;;;;;-1.30;99.90;;;;;;4995311;28;20501;-80
2022/12/09 08:30:46;;;;;;;;;;;-1.30;99.90;;;;;;5013297;28;19933;-79
2022/12/09 08:33:11;;;;;;;;;;;-1.20;99.90;;;;;;5004418;28;20028;-79
2022/12/09 08:35:37;;;;;;;;;;;-1.20;99.90;;;;;;5013015;28;19932;-77
2022/12/09 08:38:02;;;;;;;;;;;-1.20;99.90;;;;;;4998291;28;19937;-77
2022/12/09 08:40:28;;;;;;;;;;;-1.20;99.90;;;;;;5024875;28;19933;-80
2022/12/09 08:42:54;;;;;;;;;;;-1.20;99.90;;;;;;5026930;28;19932;-78
2022/12/09 08:45:20;;;;;;;;;;;-1.20;99.90;;;;;;5033462;28;19927;-77
2022/12/09 08:47:45;;;;;;;;;;;-1.20;99.90;;;;;;5016561;28;19955;-79
2022/12/09 08:50:11;;;;;;;;;;;-1.10;99.90;;;;;;5033028;28;20030;-77
2022/12/09 08:52:38;;;;;;;;;;;-1.10;99.90;;;;;;5006012;28;20417;-79
2022/12/09 08:55:04;;;;;;;;;;;-1.10;99.90;;;;;;5016069;28;19947;-77
2022/12/09 08:57:30;;;;;;;;;;;-1.00;99.90;;;;;;5015167;28;19940;-80
2022/12/09 08:59:55;;;;;;;;;;;-1.00;99.90;;;;;;5031198;28;19933;-78
2022/12/09 09:02:21;;;;;;;;;;;-0.90;99.90;;;;;;5030463;28;20511;-78
2022/12/09 09:04:47;;;;;;;;;;;-0.90;99.90;;;;;;5022053;28;19929;-79
2022/12/09 09:07:12;;;;;;;;;;;-0.80;99.90;;;;;;5008792;28;19936;-77
2022/12/09 09:09:38;;;;;;;;;;;-0.80;99.90;;;;;;5030107;28;19948;-79
2022/12/09 09:12:04;;;;;;;;;;;-0.80;99.90;;;;;;5029857;28;19986;-78
2022/12/09 09:14:30;;;;;;;;;;;-0.80;99.90;;;;;;5028261;28;20272;-78
2022/12/09 09:16:55;;;;;;;;;;;-0.80;99.90;;;;;;5014644;28;20023;-78
2022/12/09 09:19:24;;;;;;;;;;;-0.70;99.90;;;;;;5031073;28;19932;-78
2022/12/09 09:21:49;;;;;;;;;;;-0.70;99.90;;;;;;5031769;28;19935;-78
2022/12/09 09:24:16;;;;;;;;;;;-0.70;99.90;;;;;;5012285;28;19921;-77
2022/12/09 09:26:42;;;;;;;;;;;-0.10;99.90;;;;;;5018273;28;19932;-80
2022/12/09 09:29:11;;;;;;;;;;;-0.80;99.90;;;;;;5029392;28;20006;-78
2022/12/09 09:31:37;;;;;;;;;;;-0.70;99.90;;;;;;5031719;28;19925;-77
2022/12/09 09:34:02;;;;;;;;;;;-0.60;99.90;;;;;;5031247;28;19939;-78
2022/12/09 09:36:28;;;;;;;;;;;-0.60;99.90;;;;;;5016315;28;20445;-77
2022/12/09 09:38:55;;;;;;;;;;;-0.30;99.90;;;;;;5027827;28;19933;-78
2022/12/09 09:41:53;;;;;;;;;;;-0.10;99.90;;;;;;5031864;28;20277;-78
2022/12/09 09:44:19;;;;;;;;;;;0.00;99.90;;;;;;4988979;28;19925;-78
2022/12/09 09:46:46;;;;;;;;;;;0.00;99.90;;;;;;5017505;28;19932;-81
2022/12/09 09:49:31;;;;;;;;;;;-0.20;99.90;;;;;;5029687;28;20402;-78
2022/12/09 09:51:58;;;;;;;;;;;0.10;99.90;;;;;;5013114;28;19932;-80
2022/12/09 09:54:23;;;;;;;;;;;0.20;99.90;;;;;;5030597;28;20007;-78
2022/12/09 09:56:53;;;;;;;;;;;0.20;99.90;;;;;;5016334;28;20539;-80
2022/12/09 09:59:37;;;;;;;;;;;0.20;99.90;;;;;;5028244;28;20036;-79
2022/12/09 10:02:23;;;;;;;;;;;0.20;99.90;;;;;;5030686;28;19933;-79
2022/12/09 10:05:12;;;;;;;;;;;0.10;99.90;;;;;;5008259;28;19943;-78
2022/12/09 10:07:47;;;;;;;;;;;0.10;99.90;;;;;;5014932;28;20618;-78
2022/12/09 10:10:12;;;;;;;;;;;0.10;99.90;;;;;;5027949;28;20410;-79
2022/12/09 10:12:53;;;;;;;;;;;0.20;99.90;;;;;;5030660;28;19933;-78
2022/12/09 10:15:21;;;;;;;;;;;0.30;99.90;;;;;;5011418;28;19933;-78
2022/12/09 10:17:58;;;;;;;;;;;0.30;99.90;;;;;;5013489;28;20337;-80
2022/12/09 10:20:25;;;;;;;;;;;0.30;99.90;;;;;;5030904;28;19932;-78
2022/12/09 10:23:00;;;;;;;;;;;0.30;99.90;;;;;;5030967;28;20286;-79
2022/12/09 10:25:27;;;;;;;;;;;0.30;99.90;;;;;;5017994;28;20394;-80
2022/12/09 10:27:57;;;;;;;;;;;0.20;99.90;;;;;;5015014;28;19990;-78
2022/12/09 10:30:22;;;;;;;;;;;0.10;99.90;;;;;;5028687;28;19924;-80
2022/12/09 10:32:48;;;;;;;;;;;0.00;99.90;;;;;;5021400;28;19960;-78
2022/12/09 10:35:15;;;;;;;;;;;0.00;99.90;;;;;;5030592;28;20184;-78
2022/12/09 10:37:41;;;;;;;;;;;0.00;99.90;;;;;;5015914;28;19978;-79
2022/12/09 10:40:06;;;;;;;;;;;0.10;99.90;;;;;;5031123;28;20277;-78
2022/12/09 10:45:24;;;;;;;;;;;0.70;99.90;;;;;;5030184;28;20478;-80
2022/12/09 10:47:51;;;;;;;;;;;0.50;99.90;;;;;;5014471;28;20011;-80
2022/12/09 10:50:32;;;;;;;;;;;0.50;99.90;;;;;;5029853;28;19932;-79
2022/12/09 10:53:02;;;;;;;;;;;0.80;99.90;;;;;;5028911;28;19933;-79
2022/12/09 10:55:49;;;;;;;;;;;1.40;99.90;;;;;;5030131;28;19960;-79
2022/12/09 10:58:14;;;;;;;;;;;1.20;99.90;;;;;;4997162;28;19944;-79
2022/12/09 11:00:40;;;;;;;;;;;1.30;99.90;;;;;;5029042;28;19947;-79
2022/12/09 11:03:22;;;;;;;;;;;1.00;99.90;;;;;;5028292;28;19932;-80
2022/12/09 11:05:53;;;;;;;;;;;0.80;99.90;;;;;;5029747;28;19937;-79
2022/12/09 11:08:22;;;;;;;;;;;0.70;99.90;;;;;;5012393;28;20374;-79
2022/12/09 11:10:48;;;;;;;;;;;0.60;99.90;;;;;;5027035;28;20214;-78
2022/12/09 11:13:16;;;;;;;;;;;0.70;99.90;;;;;;5027998;28;19981;-80
2022/12/09 11:15:44;;;;;;;;;;;0.80;99.90;;;;;;5028235;28;21645;-80
2022/12/09 11:18:17;;;;;;;;;;;0.80;99.90;;;;;;5012798;28;19933;-78
2022/12/09 11:20:53;;;;;;;;;;;0.80;99.90;;;;;;5027920;28;19932;-79
2022/12/09 11:23:19;;;;;;;;;;;0.80;99.90;;;;;;5027995;28;19959;-80
2022/12/09 11:25:53;;;;;;;;;;;0.90;99.90;;;;;;5010249;28;19929;-78
2022/12/09 11:28:24;;;;;;;;;;;1.20;99.90;;;;;;5030331;28;20924;-77
2022/12/09 11:31:13;;;;;;;;;;;0.90;99.90;;;;;;5012196;28;20247;-78
2022/12/09 11:33:53;;;;;;;;;;;0.70;99.90;;;;;;5023620;28;19933;-78
2022/12/09 11:36:27;;;;;;;;;;;0.60;99.90;;;;;;5029808;28;20374;-78
2022/12/09 11:39:05;;;;;;;;;;;0.60;99.90;;;;;;5030524;28;19925;-78
2022/12/09 11:44:19;;;;;;;;;;;0.60;99.90;;;;;;5011318;28;19929;-77
2022/12/09 11:46:45;;;;;;;;;;;0.60;99.90;;;;;;5030100;28;19975;-78
2022/12/09 11:49:15;;;;;;;;;;;0.50;99.90;;;;;;5030416;28;19933;-79
2022/12/09 11:51:42;;;;;;;;;;;0.50;99.90;;;;;;5026308;28;19933;-79
2022/12/09 11:54:13;;;;;;;;;;;0.50;99.90;;;;;;5020950;28;20382;-77
2022/12/09 11:56:48;;;;;;;;;;;0.50;99.90;;;;;;5030932;28;19921;-76
2022/12/09 11:59:21;;;;;;;;;;;0.60;99.90;;;;;;5030320;28;20302;-78
2022/12/09 12:01:49;;;;;;;;;;;0.30;99.90;;;;;;5028259;28;19932;-80
2022/12/09 12:04:16;;;;;;;;;;;0.30;99.90;;;;;;5029343;28;19933;-78
2022/12/09 12:06:50;;;;;;;;;;;0.90;99.90;;;;;;5013558;28;20007;-76
2022/12/09 12:09:25;;;;;;;;;;;0.30;99.90;;;;;;5029530;28;19998;-80
2022/12/09 12:11:58;;;;;;;;;;;0.30;99.90;;;;;;5031552;28;19941;-80
2022/12/09 12:14:25;;;;;;;;;;;0.30;99.90;;;;;;5030260;28;19920;-76
2022/12/09 12:17:03;;;;;;;;;;;0.30;99.90;;;;;;5028054;28;20048;-77
2022/12/09 12:19:28;;;;;;;;;;;0.20;99.90;;;;;;5028896;28;20043;-77
2022/12/09 12:21:54;;;;;;;;;;;0.20;99.90;;;;;;5029213;28;19952;-78
2022/12/09 12:24:42;;;;;;;;;;;0.20;99.90;;;;;;5029420;28;19994;-79
2022/12/09 12:27:08;;;;;;;;;;;0.10;99.90;;;;;;5024254;28;20255;-76
2022/12/09 12:29:49;;;;;;;;;;;0.90;99.90;;;;;;5027489;28;19978;-79
2022/12/09 12:32:23;;;;;;;;;;;0.00;99.90;;;;;;5028461;28;19988;-81
2022/12/09 12:35:00;;;;;;;;;;;0.00;99.90;;;;;;5026406;28;19921;-77
2022/12/09 12:37:36;;;;;;;;;;;0.00;99.90;;;;;;5028107;28;19932;-78
2022/12/09 12:40:05;;;;;;;;;;;0.10;99.90;;;;;;5026965;28;19939;-79
2022/12/09 12:46:15;;;;;;;;;;;0.20;99.90;;;;;;5014551;28;19932;-76
2022/12/09 12:48:34;;;;;;;;;;;0.40;99.90;;;;;;5008254;28;20027;-80
2022/12/09 12:51:16;;;;;;;;;;;0.20;99.90;;;;;;5015974;28;19933;-79
2022/12/09 12:53:41;;;;;;;;;;;0.90;99.90;;;;;;5028320;28;19982;-82
2022/12/09 12:56:10;;;;;;;;;;;0.30;99.90;;;;;;5026730;28;19933;-81
2022/12/09 12:58:54;;;;;;;;;;;0.40;99.90;;;;;;5022268;28;20377;-78
2022/12/09 13:01:31;;;;;;;;;;;0.30;99.90;;;;;;5029212;28;20413;-78
2022/12/09 13:04:04;;;;;;;;;;;0.30;99.90;;;;;;5029850;28;19972;-77
2022/12/09 13:06:33;;;;;;;;;;;0.20;99.90;;;;;;5017303;28;20011;-78
2022/12/09 13:09:01;;;;;;;;;;;0.20;99.90;;;;;;5007916;28;20339;-77
2022/12/09 13:11:50;;;;;;;;;;;0.30;99.90;;;;;;5016290;28;19933;-80
2022/12/09 13:14:19;;;;;;;;;;;0.20;99.90;;;;;;5016088;28;20002;-80
2022/12/09 13:16:45;;;;;;;;;;;0.50;99.90;;;;;;5008949;28;19935;-77
2022/12/09 13:19:17;;;;;;;;;;;0.20;99.90;;;;;;5015805;28;20320;-77
2022/12/09 13:21:43;;;;;;;;;;;0.20;99.90;;;;;;5019723;28;19925;-77
2022/12/09 13:24:28;;;;;;;;;;;0.20;99.90;;;;;;5016159;28;20303;-79
2022/12/09 13:27:03;;;;;;;;;;;0.20;99.90;;;;;;4996133;28;20479;-77
2022/12/09 13:29:47;;;;;;;;;;;0.20;99.90;;;;;;5014818;28;20770;-78
2022/12/09 13:32:13;;;;;;;;;;;0.20;99.90;;;;;;5011023;28;19933;-81
2022/12/09 13:34:50;;;;;;;;;;;0.10;99.90;;;;;;5014418;28;19933;-79
2022/12/09 13:37:41;;;;;;;;;;;0.20;99.90;;;;;;5006209;28;20169;-77
2022/12/09 13:40:19;;;;;;;;;;;0.10;99.90;;;;;;5010444;28;19928;-78
2022/12/09 13:42:51;;;;;;;;;;;0.10;99.90;;;;;;5014614;28;19939;-77
2022/12/09 13:45:33;;;;;;;;;;;0.10;99.90;;;;;;5021163;28;19963;-78
2022/12/09 13:48:01;;;;;;;;;;;0.00;99.90;;;;;;4997632;28;19933;-77
2022/12/09 13:50:43;;;;;;;;;;;0.00;99.90;;;;;;5014468;28;20015;-78
2022/12/09 13:53:18;;;;;;;;;;;0.00;99.90;;;;;;5016933;28;20386;-77
2022/12/09 13:55:49;;;;;;;;;;;0.00;99.90;;;;;;5012198;28;20024;-80
2022/12/09 13:58:18;;;;;;;;;;;0.00;99.90;;;;;;5000870;28;20142;-80
2022/12/09 14:00:56;;;;;;;;;;;0.00;99.90;;;;;;5010552;28;19999;-81
2022/12/09 14:03:33;;;;;;;;;;;0.00;99.90;;;;;;5005697;28;20260;-78
2022/12/09 14:06:00;;;;;;;;;;;0.00;99.90;;;;;;5017203;28;19921;-78
2022/12/09 14:08:29;;;;;;;;;;;0.00;99.90;;;;;;4987260;28;20517;-79
2022/12/09 14:10:55;;;;;;;;;;;0.00;99.90;;;;;;5016719;28;19925;-77
2022/12/09 14:13:25;;;;;;;;;;;-0.10;99.90;;;;;;5016005;28;20359;-77
2022/12/09 14:16:09;;;;;;;;;;;0.00;99.90;;;;;;5022162;28;19972;-78
2022/12/09 14:18:35;;;;;;;;;;;-0.10;99.90;;;;;;5014438;28;19967;-78
2022/12/09 14:21:18;;;;;;;;;;;0.60;99.90;;;;;;5026349;28;20015;-77
2022/12/09 14:24:03;;;;;;;;;;;-0.20;99.90;;;;;;5023519;28;19921;-77
2022/12/09 14:26:32;;;;;;;;;;;-0.10;99.90;;;;;;5004748;28;19936;-79
2022/12/09 14:28:58;;;;;;;;;;;0.00;99.90;;;;;;5008095;28;20417;-80
2022/12/09 14:31:42;;;;;;;;;;;0.10;99.90;;;;;;5029392;28;19925;-77
2022/12/09 14:34:26;;;;;;;;;;;0.00;99.90;;;;;;5028907;28;19924;-78
2022/12/09 14:37:03;;;;;;;;;;;0.00;99.90;;;;;;5014247;28;19964;-77
2022/12/09 14:39:33;;;;;;;;;;;0.00;99.90;;;;;;5019048;28;19948;-77